Time;durP1;ratioP1;P1;durP2;ratioP2;P2;SDS_P1;SDS_P2;PMS_P1;PMS_P2;Temp;Humidity;BMP_temperature;BMP_pressure;BME280_temperature;BME280_humidity;BME280_pressure;Samples;Min_cycle;Max_cycle;Signal;HPM_P1;HPM_P2
2023/06/28 00:02:22;;;;;;;3.90;2.17;;;18.50;54.30;;;;;;5012953;28;20080;-73
2023/06/28 00:04:48;;;;;;;4.70;2.33;;;18.50;54.40;;;;;;4994764;28;20113;-73
2023/06/28 00:07:15;;;;;;;2.92;2.13;;;18.50;54.10;;;;;;5012930;28;20538;-73
2023/06/28 00:09:40;;;;;;;4.18;2.65;;;18.50;53.90;;;;;;5012641;28;20038;-72
2023/06/28 00:12:06;;;;;;;4.50;2.38;;;18.50;53.90;;;;;;4995247;28;20038;-73
2023/06/28 00:14:31;;;;;;;3.35;2.20;;;18.50;54.10;;;;;;5012760;28;20100;-73
2023/06/28 00:16:59;;;;;;;3.33;2.13;;;18.50;54.00;;;;;;5012802;28;20032;-73
2023/06/28 00:19:28;;;;;;;6.72;2.80;;;18.50;53.90;;;;;;5012806;28;20049;-72
2023/06/28 00:21:54;;;;;;;3.83;2.30;;;18.50;53.70;;;;;;4995069;28;20585;-73
2023/06/28 00:24:20;;;;;;;3.95;2.38;;;18.50;54.40;;;;;;5016637;28;20018;-72
2023/06/28 00:26:45;;;;;;;4.50;2.45;;;18.40;53.70;;;;;;5016424;28;20485;-72
2023/06/28 00:29:11;;;;;;;2.72;2.13;;;18.40;53.90;;;;;;5016451;28;20093;-75
2023/06/28 00:31:36;;;;;;;2.83;2.10;;;18.40;54.00;;;;;;5016598;28;20030;-72
2023/06/28 00:34:02;;;;;;;4.32;2.45;;;18.40;54.30;;;;;;5016569;28;20021;-73
2023/06/28 00:36:27;;;;;;;6.55;2.40;;;18.30;54.40;;;;;;5016347;28;20029;-73
2023/06/28 00:38:53;;;;;;;4.18;2.30;;;18.30;54.80;;;;;;5017734;28;20030;-82
2023/06/28 00:41:18;;;;;;;3.38;2.28;;;18.30;55.10;;;;;;5000346;28;20038;-88
2023/06/28 00:43:44;;;;;;;4.43;2.50;;;18.30;55.30;;;;;;5017677;28;20033;-86
2023/06/28 00:46:10;;;;;;;4.82;2.58;;;18.30;55.40;;;;;;5017563;28;20033;-87
2023/06/28 00:48:36;;;;;;;4.32;2.45;;;18.30;55.30;;;;;;5017301;28;20026;-87
2023/06/28 00:51:03;;;;;;;6.72;2.85;;;18.30;55.40;;;;;;5017356;28;20026;-87
2023/06/28 00:53:30;;;;;;;3.70;2.13;;;18.30;55.50;;;;;;5017042;28;20020;-85
2023/06/28 00:55:56;;;;;;;4.40;2.30;;;18.30;55.50;;;;;;5017265;28;20029;-85
2023/06/28 00:58:22;;;;;;;5.20;2.10;;;18.40;55.40;;;;;;5000661;28;20026;-83
2023/06/28 01:00:48;;;;;;;5.70;2.35;;;18.30;55.40;;;;;;5019003;28;20394;-85
2023/06/28 01:03:17;;;;;;;6.00;2.00;;;18.40;54.80;;;;;;5017961;28;20363;-85
2023/06/28 01:05:46;;;;;;;3.05;2.20;;;18.30;54.50;;;;;;5017028;28;20022;-85
2023/06/28 01:08:13;;;;;;;6.30;2.13;;;18.30;54.50;;;;;;5016414;28;20044;-73
2023/06/28 01:10:39;;;;;;;4.05;2.30;;;18.30;54.60;;;;;;5015720;28;20026;-72
2023/06/28 01:13:05;;;;;;;6.13;2.15;;;18.30;54.70;;;;;;5015848;28;20026;-72
2023/06/28 01:15:31;;;;;;;8.52;2.53;;;18.30;54.90;;;;;;4998035;28;20107;-72
2023/06/28 01:17:57;;;;;;;4.03;1.98;;;18.30;55.20;;;;;;5015774;28;20054;-72
2023/06/28 01:20:22;;;;;;;5.72;2.50;;;18.30;55.20;;;;;;5015664;28;20018;-72
2023/06/28 01:22:54;;;;;;;4.38;2.10;;;18.30;55.20;;;;;;5015376;28;20109;-72
2023/06/28 01:25:20;;;;;;;3.83;2.50;;;18.30;55.00;;;;;;5016362;28;20018;-86
2023/06/28 01:27:47;;;;;;;2.25;1.98;;;18.20;55.10;;;;;;5017106;28;20041;-87
2023/06/28 01:30:17;;;;;;;2.80;2.17;;;18.20;56.10;;;;;;5016923;28;20552;-87
2023/06/28 01:32:43;;;;;;;4.10;2.15;;;18.20;55.30;;;;;;5017459;28;20029;-87
2023/06/28 01:35:10;;;;;;;3.65;2.25;;;18.30;55.40;;;;;;5016868;28;20470;-88
2023/06/28 01:37:38;;;;;;;3.92;2.22;;;18.30;55.30;;;;;;5017628;28;20422;-88
2023/06/28 01:40:05;;;;;;;4.28;2.45;;;18.30;55.10;;;;;;5016920;28;20034;-88
2023/06/28 01:42:33;;;;;;;4.72;2.75;;;18.30;54.80;;;;;;5016860;28;20026;-88
2023/06/28 01:44:59;;;;;;;2.38;1.60;;;18.10;54.50;;;;;;5016841;28;20088;-88
2023/06/28 01:47:25;;;;;;;4.45;2.22;;;18.10;54.60;;;;;;5016582;28;20163;-87
2023/06/28 01:49:50;;;;;;;4.43;2.40;;;18.10;54.70;;;;;;4999251;28;20026;-87
2023/06/28 01:52:16;;;;;;;3.55;2.17;;;18.20;54.80;;;;;;5016413;28;20036;-72
2023/06/28 01:54:42;;;;;;;4.47;2.35;;;18.10;54.90;;;;;;5015045;28;20471;-72
2023/06/28 01:57:08;;;;;;;4.25;2.25;;;18.20;54.80;;;;;;5015050;28;20018;-72
2023/06/28 01:59:33;;;;;;;4.00;2.10;;;18.20;54.80;;;;;;5014924;28;20559;-73
2023/06/28 02:01:59;;;;;;;3.63;2.20;;;18.20;54.90;;;;;;5014670;28;20502;-72
2023/06/28 02:04:25;;;;;;;3.63;2.20;;;18.20;54.80;;;;;;5014912;28;20414;-74
2023/06/28 02:06:50;;;;;;;4.28;2.35;;;18.30;54.70;;;;;;5014737;28;20033;-72
2023/06/28 02:09:16;;;;;;;6.50;2.42;;;18.20;54.20;;;;;;5014370;28;20045;-73
2023/06/28 02:11:41;;;;;;;5.82;2.63;;;18.20;54.40;;;;;;5014662;28;20030;-73
2023/06/28 02:14:07;;;;;;;5.75;2.42;;;18.20;54.40;;;;;;5014776;28;20076;-72
2023/06/28 02:16:33;;;;;;;5.25;2.22;;;18.10;54.50;;;;;;5014602;28;20044;-73
2023/06/28 02:19:01;;;;;;;6.13;2.35;;;18.10;54.70;;;;;;4997021;28;20502;-72
2023/06/28 02:21:27;;;;;;;4.35;2.03;;;18.00;54.80;;;;;;5014383;28;20420;-72
2023/06/28 02:23:52;;;;;;;3.60;2.00;;;18.00;55.20;;;;;;5014490;28;20049;-72
2023/06/28 02:26:18;;;;;;;4.15;2.17;;;17.90;55.40;;;;;;5014322;28;20113;-72
2023/06/28 02:28:43;;;;;;;8.02;2.75;;;17.90;55.60;;;;;;5014306;28;20053;-72
2023/06/28 02:31:09;;;;;;;5.38;2.33;;;17.90;55.60;;;;;;5014234;28;20030;-72
2023/06/28 02:33:34;;;;;;;6.07;2.30;;;17.90;55.70;;;;;;5014156;28;20022;-72
2023/06/28 02:36:00;;;;;;;4.13;2.20;;;18.00;55.40;;;;;;5014286;28;20041;-73
2023/06/28 02:38:25;;;;;;;3.83;2.40;;;17.90;55.70;;;;;;4996508;28;20064;-73
2023/06/28 02:40:52;;;;;;;5.22;2.30;;;17.80;55.60;;;;;;5014081;28;20034;-72
2023/06/28 02:43:17;;;;;;;4.63;2.45;;;17.80;56.00;;;;;;5014072;28;20029;-72
2023/06/28 02:45:43;;;;;;;3.10;2.15;;;17.70;56.00;;;;;;5013327;28;20030;-72
2023/06/28 02:48:08;;;;;;;3.58;2.60;;;17.80;56.10;;;;;;5014129;28;20030;-72
2023/06/28 02:50:34;;;;;;;5.32;2.30;;;17.80;56.10;;;;;;5014039;28;20037;-73
2023/06/28 02:52:59;;;;;;;3.67;1.95;;;17.80;56.00;;;;;;4996322;28;20080;-72
2023/06/28 02:55:25;;;;;;;4.22;2.40;;;17.80;56.00;;;;;;5014239;28;20390;-73
2023/06/28 02:57:51;;;;;;;3.80;1.98;;;17.80;56.10;;;;;;5014517;28;20044;-72
2023/06/28 03:00:16;;;;;;;3.90;2.30;;;17.90;56.20;;;;;;5013935;28;20442;-72
2023/06/28 03:02:42;;;;;;;4.35;2.22;;;17.90;56.50;;;;;;5013635;28;20030;-72
2023/06/28 03:05:08;;;;;;;2.58;2.00;;;17.90;56.60;;;;;;5013887;28;20068;-72
2023/06/28 03:07:33;;;;;;;3.55;2.17;;;17.90;56.70;;;;;;5013643;28;20045;-73
2023/06/28 03:09:59;;;;;;;4.32;2.63;;;17.90;56.80;;;;;;4996041;28;20477;-73
2023/06/28 03:12:24;;;;;;;3.97;2.47;;;17.90;56.90;;;;;;5013628;28;20053;-73
2023/06/28 03:14:50;;;;;;;5.30;2.72;;;17.90;56.90;;;;;;5013600;28;20018;-73
2023/06/28 03:17:19;;;;;;;4.78;2.83;;;18.00;56.70;;;;;;5013733;28;20084;-72
2023/06/28 03:19:45;;;;;;;3.45;2.35;;;17.90;56.70;;;;;;5013448;28;20018;-73
2023/06/28 03:22:10;;;;;;;5.45;2.47;;;17.90;56.90;;;;;;5013528;28;20038;-72
2023/06/28 03:24:36;;;;;;;3.00;2.22;;;17.90;56.60;;;;;;5014823;28;20033;-82
2023/06/28 03:27:02;;;;;;;3.38;2.45;;;17.90;56.60;;;;;;5015713;28;20467;-88
2023/06/28 03:29:27;;;;;;;6.35;2.33;;;17.90;56.70;;;;;;5015336;28;20559;-77
2023/06/28 03:31:55;;;;;;;4.07;2.67;;;17.90;56.80;;;;;;5014454;28;20069;-86
2023/06/28 03:34:20;;;;;;;4.22;2.00;;;17.80;56.80;;;;;;5014471;28;20473;-86
2023/06/28 03:36:47;;;;;;;2.03;1.80;;;17.80;57.00;;;;;;5014561;28;20026;-86
2023/06/28 03:39:13;;;;;;;3.85;2.20;;;17.80;57.20;;;;;;4996894;28;20053;-79
2023/06/28 03:41:38;;;;;;;5.20;2.20;;;17.80;57.20;;;;;;5014054;28;20072;-79
2023/06/28 03:44:05;;;;;;;3.80;2.50;;;17.80;57.10;;;;;;5014208;28;20454;-80
2023/06/28 03:46:30;;;;;;;4.82;2.75;;;17.80;57.00;;;;;;5013906;28;20053;-83
2023/06/28 03:48:56;;;;;;;4.93;2.78;;;17.80;56.90;;;;;;5013819;28;20065;-78
2023/06/28 03:51:22;;;;;;;5.47;2.67;;;17.70;56.70;;;;;;4996046;28;20116;-74
2023/06/28 03:53:47;;;;;;;5.80;2.67;;;17.70;56.50;;;;;;5013742;28;20467;-76
2023/06/28 03:56:13;;;;;;;5.00;2.70;;;17.70;56.50;;;;;;5013233;28;20041;-77
2023/06/28 03:58:38;;;;;;;6.85;2.67;;;17.70;56.50;;;;;;5015983;28;20033;-79
2023/06/28 04:01:04;;;;;;;2.40;2.10;;;17.60;57.50;;;;;;5017140;28;20394;-73
2023/06/28 04:03:29;;;;;;;4.30;2.92;;;17.60;56.90;;;;;;5017056;28;20030;-73
2023/06/28 04:05:55;;;;;;;4.10;2.47;;;17.50;57.00;;;;;;5017683;28;20038;-85
2023/06/28 04:08:20;;;;;;;3.10;2.53;;;17.60;57.20;;;;;;5017989;28;20038;-82
2023/06/28 04:10:46;;;;;;;6.18;2.78;;;17.60;57.30;;;;;;5019818;28;20097;-83
2023/06/28 04:13:11;;;;;;;3.28;2.70;;;17.70;57.30;;;;;;5028610;28;20541;-81
2023/06/28 04:15:37;;;;;;;4.95;2.63;;;17.70;57.10;;;;;;5026240;28;20021;-85
2023/06/28 04:18:02;;;;;;;4.35;2.72;;;17.70;57.10;;;;;;5017875;28;20033;-80
2023/06/28 04:20:28;;;;;;;3.50;2.55;;;17.70;57.20;;;;;;5017313;28;20030;-81
2023/06/28 04:22:53;;;;;;;4.47;2.65;;;17.70;57.30;;;;;;5016932;28;20096;-73
2023/06/28 04:25:19;;;;;;;3.80;2.70;;;17.70;57.30;;;;;;5053053;28;20033;-72
2023/06/28 04:27:45;;;;;;;4.57;2.35;;;17.70;57.30;;;;;;5055975;28;20029;-72
2023/06/28 04:30:10;;;;;;;4.45;2.53;;;17.70;57.30;;;;;;5038332;28;20025;-78
2023/06/28 04:32:36;;;;;;;3.25;2.17;;;17.70;57.40;;;;;;5056827;28;20029;-82
2023/06/28 04:35:02;;;;;;;3.58;2.30;;;17.70;57.50;;;;;;5057158;28;20021;-86
2023/06/28 04:37:31;;;;;;;4.63;2.20;;;17.70;57.40;;;;;;5057202;28;20068;-77
2023/06/28 04:40:03;;;;;;;3.70;2.10;;;17.80;57.40;;;;;;5057206;28;20033;-87
2023/06/28 04:42:29;;;;;;;5.85;2.67;;;17.70;57.30;;;;;;5057912;28;20429;-80
2023/06/28 04:44:59;;;;;;;4.35;2.42;;;17.70;57.30;;;;;;5057501;28;20040;-85
2023/06/28 04:47:26;;;;;;;4.68;2.40;;;17.80;57.30;;;;;;5039624;28;20035;-76
2023/06/28 04:49:52;;;;;;;3.17;2.08;;;17.80;56.90;;;;;;5056560;28;20461;-81
2023/06/28 04:52:19;;;;;;;5.05;2.30;;;17.90;56.70;;;;;;5057034;28;20107;-80
2023/06/28 04:54:45;;;;;;;3.10;2.10;;;17.80;56.30;;;;;;5057900;28;20029;-83
2023/06/28 04:57:13;;;;;;;5.32;2.35;;;17.90;56.40;;;;;;5061634;28;20418;-76
2023/06/28 04:59:39;;;;;;;3.55;2.25;;;17.90;56.40;;;;;;5059056;28;20040;-78
2023/06/28 05:02:05;;;;;;;5.57;2.55;;;17.90;56.60;;;;;;5057373;28;20033;-77
2023/06/28 05:04:32;;;;;;;4.10;2.20;;;17.90;56.70;;;;;;5058423;28;20097;-80
2023/06/28 05:07:04;;;;;;;8.60;2.78;;;17.90;56.30;;;;;;5057376;28;20036;-72
2023/06/28 05:09:30;;;;;;;3.55;2.22;;;18.00;55.70;;;;;;5055691;28;20044;-82
2023/06/28 05:11:57;;;;;;;5.95;2.60;;;17.90;55.20;;;;;;5056340;28;20079;-77
2023/06/28 05:14:24;;;;;;;5.18;2.25;;;18.00;55.00;;;;;;5057049;28;20035;-83
2023/06/28 05:16:49;;;;;;;5.90;2.60;;;18.00;55.00;;;;;;5058285;28;20092;-80
2023/06/28 05:19:15;;;;;;;4.35;2.47;;;18.10;54.80;;;;;;5061284;28;20089;-76
2023/06/28 05:21:40;;;;;;;5.50;2.55;;;18.10;54.70;;;;;;5059818;28;20075;-80
2023/06/28 05:24:06;;;;;;;3.83;2.10;;;18.10;54.70;;;;;;5063199;28;20021;-73
2023/06/28 05:26:31;;;;;;;4.97;1.95;;;18.20;54.50;;;;;;5063140;28;20029;-79
2023/06/28 05:28:57;;;;;;;4.15;2.28;;;18.20;54.10;;;;;;5047814;28;20021;-82
2023/06/28 05:31:22;;;;;;;5.28;2.42;;;18.20;53.90;;;;;;5060134;28;20108;-80
2023/06/28 05:33:48;;;;;;;3.50;2.05;;;18.30;53.90;;;;;;5057181;28;20104;-76
2023/06/28 05:36:14;;;;;;;5.38;2.40;;;18.40;53.70;;;;;;5057714;28;20454;-76
2023/06/28 05:38:40;;;;;;;8.55;2.58;;;18.50;53.40;;;;;;5057123;28;20017;-84
2023/06/28 05:41:16;;;;;;;5.50;2.22;;;18.50;53.20;;;;;;5057470;28;20462;-83
2023/06/28 05:43:46;;;;;;;4.93;2.05;;;18.50;52.80;;;;;;5056948;28;20021;-86
2023/06/28 05:46:12;;;;;;;6.93;2.40;;;18.50;52.40;;;;;;5057504;28;20029;-86
2023/06/28 05:48:38;;;;;;;7.07;2.53;;;18.60;52.20;;;;;;5039477;28;20029;-87
2023/06/28 05:51:09;;;;;;;5.13;2.30;;;18.70;52.20;;;;;;5039456;28;20036;-88
2023/06/28 05:53:39;;;;;;;2.75;2.30;;;18.70;50.90;;;;;;5056901;28;20074;-88
2023/06/28 05:56:05;;;;;;;3.50;2.30;;;18.70;50.90;;;;;;5056974;28;20131;-89
2023/06/28 05:58:30;;;;;;;4.53;2.28;;;18.90;51.10;;;;;;5056659;28;20481;-83
2023/06/28 06:00:56;;;;;;;4.70;2.20;;;19.00;50.90;;;;;;5055104;28;20029;-73
2023/06/28 06:03:23;;;;;;;5.38;2.20;;;19.10;50.50;;;;;;5054743;28;20465;-73
2023/06/28 06:05:49;;;;;;;5.78;2.25;;;19.20;50.50;;;;;;5054615;28;20505;-73
2023/06/28 06:08:14;;;;;;;5.20;2.08;;;19.30;49.70;;;;;;5054216;28;20131;-72
2023/06/28 06:10:40;;;;;;;5.85;2.78;;;19.40;49.40;;;;;;5057565;28;20493;-76
2023/06/28 06:13:06;;;;;;;8.40;2.90;;;19.40;48.80;;;;;;5054738;28;20028;-83
2023/06/28 06:15:31;;;;;;;8.07;2.63;;;19.40;49.00;;;;;;5055004;28;20367;-85
2023/06/28 06:17:57;;;;;;;4.65;2.47;;;19.30;49.40;;;;;;5054786;28;20074;-73
2023/06/28 06:20:23;;;;;;;10.20;2.97;;;19.20;49.70;;;;;;5053839;28;20021;-76
2023/06/28 06:22:49;;;;;;;5.30;2.55;;;19.20;49.60;;;;;;5053963;28;20029;-80
2023/06/28 06:25:15;;;;;;;4.80;2.45;;;19.30;49.60;;;;;;5054066;28;20013;-81
2023/06/28 06:27:41;;;;;;;7.20;3.03;;;19.30;48.20;;;;;;5054114;28;20033;-79
2023/06/28 06:30:07;;;;;;;9.65;2.83;;;19.30;48.30;;;;;;5056858;28;20076;-77
2023/06/28 06:32:32;;;;;;;13.57;3.35;;;19.40;48.30;;;;;;5060984;28;20384;-77
2023/06/28 06:34:58;;;;;;;7.35;2.80;;;19.50;48.00;;;;;;5042998;28;20032;-76
2023/06/28 06:37:27;;;;;;;7.25;2.72;;;19.40;47.70;;;;;;5054992;28;20114;-80
2023/06/28 06:39:54;;;;;;;6.32;2.83;;;19.40;48.20;;;;;;5054674;28;20023;-79
2023/06/28 06:42:20;;;;;;;9.07;2.72;;;19.20;48.00;;;;;;5054501;28;20537;-74
2023/06/28 06:44:45;;;;;;;5.75;2.65;;;19.10;48.50;;;;;;5054163;28;20057;-72
2023/06/28 06:47:11;;;;;;;12.30;2.28;;;19.10;48.80;;;;;;5053877;28;20049;-74
2023/06/28 06:49:36;;;;;;;5.05;2.25;;;19.10;48.70;;;;;;5035830;28;20024;-71
2023/06/28 06:52:03;;;;;;;4.78;2.55;;;19.30;48.80;;;;;;5053631;28;20025;-72
2023/06/28 06:54:29;;;;;;;6.47;2.55;;;19.50;48.10;;;;;;5053547;28;20029;-76
2023/06/28 06:56:56;;;;;;;8.80;3.00;;;19.50;48.10;;;;;;5035762;28;20350;-70
2023/06/28 06:59:23;;;;;;;5.43;2.25;;;19.60;48.10;;;;;;5053556;28;20028;-69
2023/06/28 07:01:50;;;;;;;5.47;2.50;;;19.90;47.50;;;;;;5053465;28;20067;-71
2023/06/28 07:04:15;;;;;;;11.68;2.88;;;20.10;46.90;;;;;;5053394;28;20017;-75
2023/06/28 07:06:42;;;;;;;3.63;2.10;;;20.50;46.30;;;;;;5053291;28;20029;-71
2023/06/28 07:09:07;;;;;;;8.18;2.30;;;20.90;45.60;;;;;;5035182;28;20045;-77
2023/06/28 07:11:33;;;;;;;10.75;2.47;;;21.30;44.50;;;;;;5053500;28;20106;-76
2023/06/28 07:13:58;;;;;;;5.13;2.22;;;21.60;44.20;;;;;;5053403;28;20470;-72
2023/06/28 07:16:24;;;;;;;7.40;2.35;;;21.80;42.80;;;;;;5053423;28;20029;-80
2023/06/28 07:18:50;;;;;;;3.72;2.17;;;22.00;42.40;;;;;;5035345;28;20021;-82
2023/06/28 07:21:16;;;;;;;4.63;1.90;;;22.00;41.10;;;;;;5053043;28;20029;-70
2023/06/28 07:23:41;;;;;;;4.95;2.22;;;22.10;41.20;;;;;;5053059;28;20047;-70
2023/06/28 07:26:07;;;;;;;5.35;2.28;;;22.20;41.20;;;;;;5035064;28;20028;-71
2023/06/28 07:28:32;;;;;;;5.10;2.13;;;22.10;41.40;;;;;;5052672;28;20025;-70
2023/06/28 07:30:59;;;;;;;4.82;2.13;;;22.20;41.40;;;;;;5053156;28;20103;-70
2023/06/28 07:33:25;;;;;;;6.20;2.30;;;22.30;41.10;;;;;;5052457;28;20021;-71
2023/06/28 07:35:51;;;;;;;5.03;2.10;;;22.60;40.90;;;;;;5053323;28;20079;-81
2023/06/28 07:38:18;;;;;;;7.45;2.67;;;22.80;39.90;;;;;;5053376;28;20048;-78
2023/06/28 07:40:45;;;;;;;4.47;2.40;;;23.00;38.40;;;;;;5052978;28;20054;-74
2023/06/28 07:43:10;;;;;;;3.85;1.90;;;23.00;37.90;;;;;;5053367;28;20033;-82
2023/06/28 07:45:36;;;;;;;5.85;1.95;;;22.90;38.00;;;;;;5035641;28;20462;-82
2023/06/28 07:48:01;;;;;;;4.50;2.13;;;23.00;38.20;;;;;;5035287;28;20029;-74
2023/06/28 07:50:27;;;;;;;5.28;2.05;;;23.10;38.10;;;;;;5035331;28;20029;-79
2023/06/28 07:52:52;;;;;;;6.05;2.25;;;23.20;37.70;;;;;;5052797;28;20499;-70
2023/06/28 07:55:18;;;;;;;7.15;2.55;;;23.20;36.90;;;;;;5053290;28;20132;-74
2023/06/28 07:57:43;;;;;;;6.03;2.20;;;23.20;36.50;;;;;;5053043;28;20382;-83
2023/06/28 08:00:10;;;;;;;4.40;2.10;;;23.10;36.20;;;;;;5052469;28;20478;-75
2023/06/28 08:02:36;;;;;;;10.05;2.80;;;23.00;36.20;;;;;;5050677;28;20033;-81
2023/06/28 08:05:01;;;;;;;6.90;2.22;;;23.10;36.70;;;;;;5004728;28;20084;-72
2023/06/28 08:07:27;;;;;;;5.90;1.90;;;23.00;36.50;;;;;;5023244;28;20092;-72
2023/06/28 08:09:53;;;;;;;3.75;1.85;;;22.90;36.90;;;;;;5023617;28;20434;-72
2023/06/28 08:12:19;;;;;;;6.03;2.55;;;22.90;37.20;;;;;;5032667;28;20029;-71
2023/06/28 08:14:45;;;;;;;6.25;2.08;;;23.00;37.40;;;;;;5032661;28;20025;-73
2023/06/28 08:17:10;;;;;;;3.10;1.63;;;23.20;37.30;;;;;;5032720;28;20383;-76
2023/06/28 08:19:36;;;;;;;5.13;1.85;;;23.20;36.90;;;;;;5032633;28;20099;-72
2023/06/28 08:22:03;;;;;;;6.38;2.03;;;23.30;37.10;;;;;;5032515;28;20118;-71
2023/06/28 08:24:29;;;;;;;4.45;1.70;;;23.40;37.00;;;;;;5032451;28;20033;-75
2023/06/28 08:26:54;;;;;;;3.58;1.90;;;23.50;36.70;;;;;;5032639;28;20393;-72
2023/06/28 08:29:21;;;;;;;5.85;2.10;;;23.60;36.70;;;;;;5032507;28;20021;-77
2023/06/28 08:31:46;;;;;;;7.32;2.03;;;23.70;36.90;;;;;;5032599;28;20114;-72
2023/06/28 08:34:12;;;;;;;4.20;2.30;;;23.90;36.80;;;;;;5032704;28;20034;-74
2023/06/28 08:36:37;;;;;;;4.15;1.90;;;24.10;36.30;;;;;;5032579;28;20363;-81
2023/06/28 08:39:03;;;;;;;2.97;1.73;;;24.40;35.60;;;;;;5032449;28;20036;-72
2023/06/28 08:41:30;;;;;;;6.53;2.00;;;24.50;34.70;;;;;;5014719;28;20045;-83
2023/06/28 08:43:59;;;;;;;7.60;2.15;;;24.60;34.50;;;;;;5034405;28;20021;-81
2023/06/28 08:46:26;;;;;;;7.95;2.10;;;24.60;33.80;;;;;;5036388;28;20113;-81
2023/06/28 08:48:53;;;;;;;5.65;1.98;;;24.80;34.00;;;;;;5036644;28;20032;-82
2023/06/28 08:51:19;;;;;;;4.18;2.15;;;25.00;33.70;;;;;;5036208;28;20033;-85
2023/06/28 08:53:47;;;;;;;5.18;1.90;;;25.00;33.40;;;;;;5036252;28;20057;-78
2023/06/28 08:56:13;;;;;;;4.25;1.88;;;25.10;32.90;;;;;;5040491;28;20041;-77
2023/06/28 08:58:41;;;;;;;5.10;1.95;;;25.10;33.30;;;;;;5036095;28;20359;-74
2023/06/28 09:01:11;;;;;;;5.22;2.28;;;25.20;32.30;;;;;;5036023;28;20042;-83
2023/06/28 09:03:41;;;;;;;5.90;2.08;;;25.10;32.50;;;;;;5036107;28;20104;-75
2023/06/28 09:06:07;;;;;;;6.18;2.10;;;24.90;32.80;;;;;;5036458;28;20491;-77
2023/06/28 09:08:34;;;;;;;5.47;1.85;;;24.90;32.90;;;;;;5035745;28;20077;-76
2023/06/28 09:11:01;;;;;;;4.07;1.83;;;24.90;32.80;;;;;;5035883;28;20078;-71
2023/06/28 09:13:30;;;;;;;4.72;1.90;;;24.90;32.30;;;;;;5018162;28;20090;-76
2023/06/28 09:15:56;;;;;;;3.88;2.08;;;24.90;32.20;;;;;;5035471;28;20025;-72
2023/06/28 09:18:22;;;;;;;3.55;1.60;;;24.90;32.00;;;;;;5035784;28;20021;-75
2023/06/28 09:20:52;;;;;;;3.38;1.58;;;24.70;33.30;;;;;;5035514;28;20442;-78
2023/06/28 09:23:28;;;;;;;8.10;2.10;;;24.50;33.50;;;;;;5026385;28;20034;-72
2023/06/28 09:25:54;;;;;;;5.93;2.15;;;24.60;33.60;;;;;;5015558;28;20029;-70
2023/06/28 09:28:23;;;;;;;3.15;1.50;;;24.80;33.10;;;;;;5018771;28;20108;-70
2023/06/28 09:30:56;;;;;;;3.65;1.40;;;24.90;32.60;;;;;;5035437;28;20068;-72
2023/06/28 09:33:25;;;;;;;3.63;1.70;;;24.90;31.40;;;;;;5013288;28;20076;-71
2023/06/28 09:35:55;;;;;;;6.28;1.77;;;24.80;32.50;;;;;;5029707;28;20107;-71
2023/06/28 09:38:21;;;;;;;6.65;2.05;;;24.90;32.50;;;;;;5007928;28;20029;-71
2023/06/28 09:41:05;;;;;;;6.95;2.75;;;25.00;33.00;;;;;;5014932;28;20048;-71
2023/06/28 09:43:32;;;;;;;5.35;2.53;;;24.70;33.10;;;;;;5014944;28;20022;-70
2023/06/28 09:46:13;;;;;;;4.75;2.08;;;24.20;34.20;;;;;;5014988;28;20067;-72
2023/06/28 09:48:48;;;;;;;5.88;1.98;;;23.70;35.20;;;;;;5014812;28;20022;-72
2023/06/28 09:51:18;;;;;;;3.05;1.60;;;23.50;35.70;;;;;;5014749;28;20026;-72
2023/06/28 09:53:49;;;;;;;5.15;2.03;;;23.70;35.50;;;;;;5018098;28;20052;-72
2023/06/28 09:56:18;;;;;;;3.53;1.33;;;24.10;35.40;;;;;;5033901;28;20486;-71
2023/06/28 09:58:47;;;;;;;5.78;2.25;;;24.30;34.50;;;;;;5034249;28;20494;-71
2023/06/28 10:01:15;;;;;;;4.38;1.52;;;24.60;33.90;;;;;;5033943;28;20124;-72
2023/06/28 10:03:45;;;;;;;6.25;2.13;;;24.80;32.90;;;;;;5034022;28;20014;-73
2023/06/28 10:06:11;;;;;;;4.57;1.60;;;25.10;32.50;;;;;;5033719;28;20467;-72
2023/06/28 10:08:38;;;;;;;7.30;2.10;;;25.20;32.60;;;;;;5033630;28;20061;-71
2023/06/28 10:11:12;;;;;;;5.88;1.70;;;25.40;32.30;;;;;;5015522;28;20242;-72
2023/06/28 10:13:40;;;;;;;6.63;2.05;;;25.50;31.80;;;;;;5015462;28;20029;-70
2023/06/28 10:16:15;;;;;;;5.00;2.03;;;25.50;32.40;;;;;;5033174;28;20453;-73
2023/06/28 10:18:44;;;;;;;4.78;1.88;;;25.10;31.60;;;;;;5009654;28;20431;-72
2023/06/28 10:21:10;;;;;;;9.10;2.00;;;25.10;32.50;;;;;;5005718;28;20029;-72
2023/06/28 10:23:39;;;;;;;3.97;1.88;;;25.40;32.80;;;;;;5004158;28;20129;-76
2023/06/28 10:26:04;;;;;;;5.40;1.83;;;25.60;31.60;;;;;;5025599;28;20032;-72
2023/06/28 10:28:34;;;;;;;6.32;2.50;;;25.50;31.30;;;;;;5033598;28;20096;-72
2023/06/28 10:31:00;;;;;;;4.35;2.08;;;25.70;31.10;;;;;;5020622;28;20453;-73
2023/06/28 10:33:31;;;;;;;5.07;1.98;;;25.60;32.10;;;;;;5033573;28;20021;-73
2023/06/28 10:35:57;;;;;;;5.95;1.60;;;25.80;33.00;;;;;;5033577;28;20037;-72
2023/06/28 10:38:23;;;;;;;5.05;2.53;;;26.20;32.10;;;;;;5033402;28;20417;-72
2023/06/28 10:40:49;;;;;;;7.85;4.90;;;26.30;30.70;;;;;;5033247;28;20025;-73
2023/06/28 10:43:24;;;;;;;11.20;2.22;;;26.50;30.20;;;;;;5032681;28;20108;-73
2023/06/28 10:45:51;;;;;;;4.18;1.83;;;26.40;30.40;;;;;;5033208;28;20025;-72
2023/06/28 10:48:19;;;;;;;5.53;2.10;;;26.50;29.30;;;;;;5032683;28;20505;-73
2023/06/28 10:50:44;;;;;;;5.47;1.73;;;26.50;30.20;;;;;;5022643;28;20482;-71
2023/06/28 10:53:25;;;;;;;6.70;2.10;;;26.40;28.60;;;;;;5023656;28;20029;-70
2023/06/28 10:56:11;;;;;;;5.28;1.80;;;26.30;30.20;;;;;;5003950;28;20033;-71
2023/06/28 10:58:38;;;;;;;7.00;1.88;;;26.20;31.30;;;;;;5021841;28;20106;-70
2023/06/28 11:01:30;;;;;;;5.35;1.95;;;26.50;30.90;;;;;;5024838;28;20548;-71
2023/06/28 11:04:22;;;;;;;3.50;1.80;;;26.70;29.80;;;;;;5022127;28;20482;-72
2023/06/28 11:06:48;;;;;;;6.35;2.25;;;26.70;29.70;;;;;;5028940;28;20078;-73
2023/06/28 11:09:17;;;;;;;6.88;1.70;;;26.70;29.70;;;;;;5032346;28;20103;-73
2023/06/28 11:11:52;;;;;;;4.90;2.00;;;25.80;31.10;;;;;;5033027;28;20414;-71
2023/06/28 11:14:18;;;;;;;;;;;25.50;30.80;;;;;;5033324;28;20033;-83
2023/06/28 11:16:47;;;;;;;5.22;2.13;;;25.10;33.30;;;;;;5016074;28;19905;-82
2023/06/28 11:19:14;;;;;;;5.60;2.25;;;24.50;33.40;;;;;;5033581;28;20026;-78
2023/06/28 11:21:40;;;;;;;3.03;1.50;;;24.60;33.30;;;;;;5029198;28;20057;-75
2023/06/28 11:24:06;;;;;;;5.45;1.58;;;24.80;33.20;;;;;;5022039;28;20491;-77
2023/06/28 11:26:36;;;;;;;5.97;2.20;;;25.00;34.00;;;;;;5024294;28;20100;-78
2023/06/28 11:29:16;;;;;;;6.95;2.30;;;24.90;33.10;;;;;;5021259;28;20020;-77
2023/06/28 11:31:53;;;;;;;3.42;1.50;;;24.70;33.40;;;;;;5023414;28;20017;-78
2023/06/28 11:34:19;;;;;;;6.10;2.35;;;24.60;34.10;;;;;;5023495;28;20014;-78
2023/06/28 11:36:49;;;;;;;10.50;2.03;;;24.50;34.50;;;;;;5021832;28;20057;-79
2023/06/28 11:39:19;;;;;;;5.55;2.00;;;24.60;34.30;;;;;;5021837;28;20029;-78
2023/06/28 11:41:45;;;;;;;4.45;1.70;;;24.80;33.60;;;;;;5021275;28;20548;-78
2023/06/28 11:44:12;;;;;;;6.43;2.78;;;24.90;33.60;;;;;;5032635;28;20390;-78
2023/06/28 11:46:39;;;;;;;3.97;2.00;;;25.30;32.80;;;;;;5032594;28;20386;-78
2023/06/28 11:49:06;;;;;;;5.68;1.92;;;25.50;32.20;;;;;;5032624;28;20021;-78
2023/06/28 11:51:32;;;;;;;5.20;1.75;;;25.70;31.90;;;;;;5014876;28;20434;-80
2023/06/28 11:53:57;;;;;;;5.38;1.80;;;25.50;32.10;;;;;;5032862;28;20025;-79
2023/06/28 11:56:39;;;;;;;4.80;2.03;;;25.30;32.70;;;;;;5032216;28;20537;-73
2023/06/28 11:59:19;;;;;;;4.00;2.00;;;25.20;32.00;;;;;;5032302;28;20056;-79
2023/06/28 12:01:46;;;;;;;5.60;1.80;;;25.10;33.10;;;;;;5032388;28;20076;-79
2023/06/28 12:04:19;;;;;;;4.18;1.60;;;25.20;32.70;;;;;;5032346;28;20032;-79
2023/06/28 12:06:46;;;;;;;6.65;1.60;;;25.30;33.10;;;;;;5032535;28;20034;-80
2023/06/28 12:09:26;;;;;;;5.07;1.80;;;25.40;32.60;;;;;;5032171;28;20124;-79
2023/06/28 12:12:05;;;;;;;5.97;1.88;;;25.50;32.40;;;;;;5032074;28;20549;-79
2023/06/28 12:14:42;;;;;;;3.70;1.58;;;25.50;32.90;;;;;;5031972;28;20084;-79
2023/06/28 12:17:08;;;;;;;4.25;1.67;;;25.50;32.40;;;;;;5032124;28;20435;-78
2023/06/28 12:19:35;;;;;;;5.50;2.08;;;25.50;32.90;;;;;;5034799;28;20061;-80
2023/06/28 12:22:05;;;;;;;6.50;1.73;;;25.50;32.70;;;;;;5035979;28;20041;-79
2023/06/28 12:24:34;;;;;;;3.00;1.70;;;25.50;33.00;;;;;;5036123;28;20022;-78
2023/06/28 12:27:02;;;;;;;7.13;3.90;;;25.50;32.70;;;;;;5036109;28;20032;-78
2023/06/28 12:29:29;;;;;;;9.93;7.95;;;25.40;33.10;;;;;;5035749;28;20056;-78
2023/06/28 12:32:02;;;;;;;3.13;1.98;;;25.30;33.70;;;;;;5036375;28;20022;-76
2023/06/28 12:34:31;;;;;;;4.93;1.75;;;25.10;32.40;;;;;;5055643;28;20031;-78
2023/06/28 12:37:00;;;;;;;6.93;1.67;;;24.90;33.10;;;;;;5057131;28;20027;-88
2023/06/28 12:39:30;;;;;;;4.03;1.52;;;24.70;33.70;;;;;;5057883;28;20017;-85
2023/06/28 12:42:03;;;;;;;16.48;2.40;;;24.60;33.40;;;;;;5056189;28;20039;-81
2023/06/28 12:44:30;;;;;;;5.30;2.13;;;24.50;34.10;;;;;;5055488;28;20017;-78
2023/06/28 12:46:56;;;;;;;7.97;2.10;;;24.40;34.20;;;;;;5055630;28;20477;-79
2023/06/28 12:49:22;;;;;;;4.97;1.95;;;24.60;34.30;;;;;;5055229;28;20083;-76